Time;durP1;ratioP1;P1;durP2;ratioP2;P2;SDS_P1;SDS_P2;PMS_P1;PMS_P2;Temp;Humidity;BMP_temperature;BMP_pressure;BME280_temperature;BME280_humidity;BME280_pressure;Samples;Min_cycle;Max_cycle;Signal;HPM_P1;HPM_P2
2022/11/25 00:01:07;;;;;;;59.60;17.65;;;3.80;99.90;;;;;;4757985;30;20067;-78
2022/11/25 00:03:38;;;;;;;54.97;17.85;;;3.70;99.90;;;;;;4742652;30;20049;-78
2022/11/25 00:06:24;;;;;;;57.60;16.40;;;3.70;99.90;;;;;;4732890;30;20057;-78
2022/11/25 00:08:55;;;;;;;56.42;18.33;;;3.70;99.90;;;;;;4750470;30;20524;-79
2022/11/25 00:11:23;;;;;;;50.53;17.52;;;3.70;99.90;;;;;;4723234;30;20056;-78
2022/11/25 00:13:58;;;;;;;52.15;17.42;;;3.70;99.90;;;;;;4736002;30;20055;-78
2022/11/25 00:16:25;;;;;;;56.22;17.50;;;3.70;99.90;;;;;;4732619;30;20438;-79
2022/11/25 00:18:54;;;;;;;48.80;16.85;;;3.80;99.90;;;;;;4768435;30;20037;-78
2022/11/25 00:21:24;;;;;;;56.92;17.25;;;3.80;99.90;;;;;;4730658;30;20044;-78
2022/11/25 00:23:53;;;;;;;55.05;17.13;;;3.80;99.90;;;;;;4746669;30;20135;-78
2022/11/25 00:26:22;;;;;;;54.42;18.40;;;3.80;99.90;;;;;;4766187;30;20029;-78
2022/11/25 00:29:00;;;;;;;50.22;18.00;;;3.80;99.90;;;;;;4846178;24;20066;-78
2022/11/25 00:31:30;;;;;;;47.20;15.13;;;3.80;99.90;;;;;;4780452;30;20052;-78
2022/11/25 00:33:57;;;;;;;41.78;14.93;;;3.80;99.90;;;;;;4795687;29;20080;-78
2022/11/25 00:36:27;;;;;;;42.58;15.63;;;3.80;99.90;;;;;;4776296;30;20051;-78
2022/11/25 00:39:04;;;;;;;45.35;14.90;;;4.30;99.90;;;;;;4785347;30;20047;-78
2022/11/25 00:44:35;;;;;;;54.08;18.00;;;3.70;99.90;;;;;;4806058;29;20044;-78
2022/11/25 00:47:30;;;;;;;45.53;15.30;;;3.70;99.90;;;;;;4791660;30;20055;-78
2022/11/25 00:49:57;;;;;;;;;;;3.60;99.90;;;;;;4776375;30;20048;-78
2022/11/25 00:52:26;;;;;;;45.75;15.75;;;3.60;99.90;;;;;;4792871;29;19925;-78
2022/11/25 00:54:53;;;;;;;43.78;14.07;;;3.60;99.90;;;;;;4775958;30;20047;-78
2022/11/25 00:57:22;;;;;;;39.55;13.82;;;3.60;99.90;;;;;;4792816;30;20043;-78
2022/11/25 00:59:49;;;;;;;44.55;13.82;;;3.60;99.90;;;;;;4787339;29;20055;-78
2022/11/25 01:02:21;;;;;;;45.25;14.85;;;3.50;99.90;;;;;;4790803;30;20052;-78
2022/11/25 01:04:48;;;;;;;44.50;16.00;;;3.70;99.90;;;;;;4788282;29;20090;-78
2022/11/25 01:07:16;;;;;;;41.97;16.38;;;3.50;99.90;;;;;;4781919;29;20048;-78
2022/11/25 01:09:44;;;;;;;52.38;18.38;;;3.50;99.90;;;;;;4792898;29;20039;-78
2022/11/25 01:12:11;;;;;;;59.28;19.55;;;3.40;99.90;;;;;;4779136;29;20058;-78
2022/11/25 01:14:38;;;;;;;52.35;16.88;;;3.40;99.90;;;;;;4778852;30;20504;-78
2022/11/25 01:17:06;;;;;;;60.20;19.25;;;3.40;99.90;;;;;;4791792;30;20067;-78
2022/11/25 01:19:37;;;;;;;74.82;23.38;;;3.40;99.90;;;;;;4794552;29;20082;-78
2022/11/25 01:22:04;;;;;;;64.35;21.02;;;3.40;99.90;;;;;;4770479;29;20113;-78
2022/11/25 01:24:32;;;;;;;75.10;21.92;;;3.70;99.90;;;;;;4776509;30;20115;-78
2022/11/25 01:27:00;;;;;;;61.00;19.95;;;3.40;99.90;;;;;;4770252;30;20053;-78
2022/11/25 01:29:27;;;;;;;56.78;17.75;;;3.40;99.90;;;;;;4770115;30;20072;-78
2022/11/25 01:31:55;;;;;;;67.43;19.98;;;3.40;99.90;;;;;;4770841;30;20055;-78
2022/11/25 01:34:25;;;;;;;75.22;24.30;;;3.40;99.90;;;;;;4770203;30;20056;-78
2022/11/25 01:36:56;;;;;;;63.83;21.65;;;3.40;99.90;;;;;;4759283;30;20060;-78
2022/11/25 01:39:24;;;;;;;62.08;18.50;;;3.40;99.90;;;;;;4764381;30;20523;-78
2022/11/25 01:41:58;;;;;;;56.60;17.33;;;3.40;99.90;;;;;;4770726;30;21019;-78
2022/11/25 01:44:30;;;;;;;76.38;24.10;;;3.40;99.90;;;;;;4777366;30;20046;-78
2022/11/25 01:47:10;;;;;;;73.05;22.98;;;4.00;99.90;;;;;;4781554;30;20066;-78
2022/11/25 01:50:04;;;;;;;63.40;20.40;;;3.30;99.90;;;;;;4773447;30;20619;-78
2022/11/25 01:52:35;;;;;;;64.28;19.15;;;3.30;99.90;;;;;;4769220;30;20044;-78
2022/11/25 01:55:09;;;;;;;56.10;19.45;;;3.20;99.90;;;;;;4763011;30;20476;-78
2022/11/25 01:58:03;;;;;;;83.40;26.90;;;3.20;99.90;;;;;;4768242;30;20048;-78
2022/11/25 02:00:30;;;;;;;66.47;21.38;;;3.10;99.90;;;;;;4768011;30;20064;-78
2022/11/25 02:02:57;;;;;;;54.50;19.08;;;3.20;99.90;;;;;;4769742;30;20488;-78
2022/11/25 02:05:41;;;;;;;68.72;20.85;;;3.10;99.90;;;;;;4777389;30;20063;-78
2022/11/25 02:08:09;;;;;;;61.35;18.60;;;3.10;99.90;;;;;;4769252;30;20061;-78
2022/11/25 02:10:37;;;;;;;58.20;18.55;;;3.00;99.90;;;;;;4781164;30;20047;-78
2022/11/25 02:13:04;;;;;;;70.72;20.33;;;3.60;99.90;;;;;;4764796;30;20062;-78
2022/11/25 02:15:34;;;;;;;56.72;18.17;;;3.70;99.90;;;;;;4762354;30;20108;-78
2022/11/25 02:18:03;;;;;;;49.58;16.90;;;4.00;99.90;;;;;;4777265;30;20044;-78
2022/11/25 02:20:30;;;;;;;52.85;17.98;;;2.90;99.90;;;;;;4773932;30;20097;-78
2022/11/25 02:23:10;;;;;;;60.70;18.48;;;2.90;99.90;;;;;;4761764;30;20047;-78
2022/11/25 02:25:39;;;;;;;56.22;16.92;;;2.90;99.90;;;;;;4774920;30;20112;-78
2022/11/25 02:28:22;;;;;;;50.60;16.27;;;2.90;99.90;;;;;;4770876;30;20052;-78
2022/11/25 02:30:49;;;;;;;54.85;18.02;;;2.90;99.90;;;;;;4753111;30;20068;-79
2022/11/25 02:33:17;;;;;;;50.67;15.18;;;2.90;99.90;;;;;;4761509;30;20056;-78
2022/11/25 02:35:54;;;;;;;52.00;15.48;;;2.90;99.90;;;;;;4760110;30;21859;-78
2022/11/25 02:38:42;;;;;;;59.72;16.00;;;2.90;99.90;;;;;;4769750;29;20056;-78
2022/11/25 02:41:27;;;;;;;54.65;15.65;;;2.90;99.90;;;;;;4762663;30;20056;-78
2022/11/25 02:43:59;;;;;;;52.65;14.05;;;2.90;99.90;;;;;;4764019;30;20059;-78
2022/11/25 02:46:28;;;;;;;44.75;14.38;;;2.80;99.90;;;;;;4761907;30;20135;-78
2022/11/25 02:48:57;;;;;;;49.70;15.35;;;2.80;99.90;;;;;;4769267;30;20464;-78
2022/11/25 02:51:43;;;;;;;43.72;13.95;;;2.80;99.90;;;;;;4766178;30;20054;-78
2022/11/25 02:54:12;;;;;;;51.00;15.90;;;2.80;99.90;;;;;;4764925;30;20048;-78
2022/11/25 02:56:40;;;;;;;54.92;15.38;;;1.50;99.90;;;;;;4758277;30;20493;-78
2022/11/25 02:59:08;;;;;;;54.97;16.15;;;2.70;99.90;;;;;;4764963;30;20051;-78
2022/11/25 03:01:37;;;;;;;53.88;15.73;;;2.70;99.90;;;;;;4760737;30;20068;-78
2022/11/25 03:04:06;;;;;;;51.53;14.52;;;2.80;99.90;;;;;;4764524;30;20074;-78
2022/11/25 03:06:34;;;;;;;54.70;15.77;;;2.60;99.90;;;;;;4772518;29;20117;-78
2022/11/25 03:09:02;;;;;;;62.88;17.05;;;2.60;99.90;;;;;;4761523;30;20424;-78
2022/11/25 03:14:16;;;;;;;47.20;15.35;;;2.60;99.90;;;;;;4774793;30;20059;-78
2022/11/25 03:16:43;;;;;;;55.28;16.05;;;2.60;99.90;;;;;;4777410;30;20446;-78
2022/11/25 03:19:10;;;;;;;54.10;15.63;;;2.60;99.90;;;;;;4762553;30;20060;-78
2022/11/25 03:21:37;;;;;;;71.50;18.77;;;2.50;99.90;;;;;;4758373;30;20096;-78
2022/11/25 03:24:05;;;;;;;67.60;20.30;;;2.50;99.90;;;;;;4772835;30;20052;-78
2022/11/25 03:26:32;;;;;;;70.65;20.30;;;2.50;99.90;;;;;;4764129;30;20106;-78
2022/11/25 03:28:59;;;;;;;68.60;21.05;;;2.40;99.90;;;;;;4761472;30;20107;-78
2022/11/25 03:31:26;;;;;;;74.55;20.60;;;2.60;99.90;;;;;;4762159;30;20504;-78
2022/11/25 03:33:55;;;;;;;83.20;20.48;;;2.40;99.90;;;;;;4756680;30;20147;-78
2022/11/25 03:36:22;;;;;;;89.35;24.00;;;2.40;99.90;;;;;;4778854;29;20056;-78
2022/11/25 03:38:49;;;;;;;74.93;21.17;;;2.30;99.90;;;;;;4764023;30;20074;-78
2022/11/25 03:41:16;;;;;;;67.07;18.63;;;2.30;99.90;;;;;;4751257;30;20056;-78
2022/11/25 03:43:44;;;;;;;73.15;20.27;;;2.40;99.90;;;;;;4768785;30;20492;-78
2022/11/25 03:46:11;;;;;;;74.47;20.58;;;2.30;99.90;;;;;;4763662;30;20513;-78
2022/11/25 03:48:39;;;;;;;72.97;20.55;;;2.30;99.90;;;;;;4771040;29;20079;-78
2022/11/25 03:51:06;;;;;;;71.88;18.95;;;2.30;99.90;;;;;;4779996;30;20044;-78
2022/11/25 03:53:34;;;;;;;71.72;17.55;;;2.30;99.90;;;;;;4766936;30;20135;-78
2022/11/25 03:56:04;;;;;;;75.97;19.80;;;2.40;99.90;;;;;;4769439;30;20051;-78
2022/11/25 03:58:31;;;;;;;69.93;18.48;;;2.30;99.90;;;;;;4779823;30;20062;-78
2022/11/25 04:01:02;;;;;;;74.55;18.73;;;2.30;99.90;;;;;;4772367;30;20052;-79
2022/11/25 04:03:30;;;;;;;72.57;19.17;;;2.20;99.90;;;;;;4776398;30;20059;-78
2022/11/25 04:05:57;;;;;;;73.72;19.88;;;2.30;99.90;;;;;;4764652;30;20040;-80
2022/11/25 04:08:26;;;;;;;77.65;21.52;;;2.20;99.90;;;;;;4763364;30;20048;-79
2022/11/25 04:10:53;;;;;;;72.70;19.95;;;2.20;99.90;;;;;;4754220;30;20052;-78
2022/11/25 04:13:23;;;;;;;75.93;22.33;;;2.30;99.90;;;;;;4768302;30;20075;-78
2022/11/25 04:15:51;;;;;;;77.60;20.58;;;2.20;99.90;;;;;;4765444;30;20051;-79
2022/11/25 04:18:20;;;;;;;89.43;19.45;;;2.10;99.90;;;;;;4766364;30;20056;-78
2022/11/25 04:20:51;;;;;;;78.85;20.33;;;2.10;99.90;;;;;;4776535;30;20071;-78
2022/11/25 04:23:18;;;;;;;76.68;20.13;;;2.10;99.90;;;;;;4759437;30;20059;-78
2022/11/25 04:25:55;;;;;;;83.22;19.42;;;2.10;99.90;;;;;;4752518;30;20153;-78
2022/11/25 04:28:28;;;;;;;86.10;21.23;;;2.00;99.90;;;;;;4772924;29;20462;-78
2022/11/25 04:30:56;;;;;;;92.05;22.63;;;2.10;99.90;;;;;;4776002;30;20039;-78
2022/11/25 04:33:23;;;;;;;84.90;21.77;;;2.10;99.90;;;;;;4757908;30;20044;-78
2022/11/25 04:35:50;;;;;;;84.30;22.23;;;2.00;99.90;;;;;;4764527;30;20051;-78
2022/11/25 04:38:18;;;;;;;87.80;22.98;;;2.60;99.90;;;;;;4774565;29;20071;-78
2022/11/25 04:40:46;;;;;;;96.40;24.13;;;2.60;99.90;;;;;;4762808;30;20132;-78
2022/11/25 04:43:19;;;;;;;84.07;21.20;;;1.90;99.90;;;;;;4761829;30;20044;-78
2022/11/25 04:45:51;;;;;;;87.15;24.02;;;1.90;99.90;;;;;;4762878;30;20056;-78
2022/11/25 04:48:38;;;;;;;86.93;22.65;;;1.90;99.90;;;;;;4767699;30;20047;-78
2022/11/25 04:51:05;;;;;;;96.45;22.92;;;1.90;99.90;;;;;;4761606;30;20475;-78
2022/11/25 04:53:32;;;;;;;85.38;23.20;;;1.90;99.90;;;;;;4759109;30;20059;-78
2022/11/25 04:55:59;;;;;;;91.20;22.80;;;1.90;99.90;;;;;;4752903;30;20063;-78
2022/11/25 05:01:15;;;;;;;94.40;25.58;;;1.80;99.90;;;;;;4766043;30;20051;-78
2022/11/25 05:03:48;;;;;;;93.35;23.77;;;1.80;99.90;;;;;;4763390;30;20048;-78
2022/11/25 05:06:24;;;;;;;92.88;23.30;;;2.00;99.90;;;;;;4755067;30;20086;-78
2022/11/25 05:08:52;;;;;;;94.30;23.35;;;1.70;99.90;;;;;;4772839;30;20060;-78
2022/11/25 05:11:22;;;;;;;86.32;22.73;;;1.80;99.90;;;;;;4760600;30;20129;-78
2022/11/25 05:13:50;;;;;;;89.22;23.38;;;1.80;99.90;;;;;;4762345;30;20059;-78
2022/11/25 05:16:18;;;;;;;83.03;24.15;;;1.70;99.90;;;;;;4760097;30;20055;-78
2022/11/25 05:18:45;;;;;;;79.10;21.10;;;2.20;99.90;;;;;;4758227;30;20145;-78
2022/11/25 05:21:12;;;;;;;85.80;21.58;;;1.70;99.90;;;;;;4766794;30;20096;-78
2022/11/25 05:23:41;;;;;;;84.93;20.75;;;1.60;99.90;;;;;;4760501;30;20070;-78
2022/11/25 05:26:08;;;;;;;82.65;21.90;;;2.10;99.90;;;;;;4758684;30;20116;-80
2022/11/25 05:28:42;;;;;;;98.38;22.90;;;1.60;99.90;;;;;;4773220;29;20056;-78
2022/11/25 05:31:10;;;;;;;91.20;23.77;;;1.60;99.90;;;;;;4770076;30;20058;-80
2022/11/25 05:33:37;;;;;;;100.53;27.40;;;2.10;99.90;;;;;;4756221;30;20051;-79
2022/11/25 05:36:06;;;;;;;88.53;23.23;;;2.10;99.90;;;;;;4763068;30;20504;-78
2022/11/25 05:38:43;;;;;;;93.53;23.17;;;1.50;99.90;;;;;;4764353;30;20059;-78
2022/11/25 05:41:13;;;;;;;93.45;26.17;;;1.50;99.90;;;;;;4764468;30;20068;-78
2022/11/25 05:43:43;;;;;;;88.25;25.02;;;1.60;99.90;;;;;;4766982;30;20130;-79
2022/11/25 05:46:10;;;;;;;106.47;25.67;;;2.50;99.90;;;;;;4766034;30;20048;-79
2022/11/25 05:48:44;;;;;;;107.30;29.45;;;1.50;99.90;;;;;;4761551;30;20059;-79
2022/11/25 05:51:11;;;;;;;101.80;27.33;;;1.50;99.90;;;;;;4769946;30;20474;-80
2022/11/25 05:53:38;;;;;;;110.65;27.65;;;1.60;99.90;;;;;;4759738;30;20120;-80
2022/11/25 05:56:06;;;;;;;110.25;27.38;;;1.70;99.90;;;;;;4775506;29;20048;-80
2022/11/25 05:59:06;;;;;;;102.78;26.17;;;1.40;99.90;;;;;;4738895;30;20044;-78
2022/11/25 06:01:44;;;;;;;91.38;24.90;;;1.50;99.90;;;;;;4750135;30;20071;-79
2022/11/25 06:04:11;;;;;;;100.13;25.08;;;1.40;99.90;;;;;;4762202;30;20048;-79
2022/11/25 06:06:38;;;;;;;101.25;28.30;;;1.40;99.90;;;;;;4761445;30;20040;-81
2022/11/25 06:09:06;;;;;;;107.93;27.90;;;1.60;99.90;;;;;;4756404;30;20106;-79
2022/11/25 06:11:33;;;;;;;91.90;27.27;;;1.50;99.90;;;;;;4763178;30;20044;-79
2022/11/25 06:14:01;;;;;;;100.03;25.80;;;1.40;99.90;;;;;;4775196;30;20062;-78
2022/11/25 06:16:28;;;;;;;101.95;26.73;;;1.40;99.90;;;;;;4767875;30;20040;-78
2022/11/25 06:19:07;;;;;;;94.05;24.90;;;1.40;99.90;;;;;;4759712;30;21818;-77
2022/11/25 06:21:36;;;;;;;94.60;26.45;;;1.40;99.90;;;;;;4748679;30;20060;-77
2022/11/25 06:24:03;;;;;;;95.68;25.00;;;2.00;99.90;;;;;;4756959;30;20509;-77
2022/11/25 06:26:31;;;;;;;115.85;26.15;;;1.40;99.90;;;;;;4758730;30;20044;-77
2022/11/25 06:28:58;;;;;;;126.70;30.10;;;2.20;99.90;;;;;;4763485;30;20109;-77
2022/11/25 06:31:28;;;;;;;122.30;30.33;;;1.40;99.90;;;;;;4770995;30;20054;-76
2022/11/25 06:34:14;;;;;;;118.38;33.97;;;1.40;99.90;;;;;;4759370;30;20056;-76
2022/11/25 06:36:41;;;;;;;133.48;35.35;;;1.50;99.90;;;;;;4772261;30;20560;-76
2022/11/25 06:39:08;;;;;;;181.52;48.70;;;1.70;99.90;;;;;;4757441;30;20083;-76
2022/11/25 06:41:35;;;;;;;185.57;54.38;;;1.50;99.90;;;;;;4769292;30;20076;-76
2022/11/25 06:44:02;;;;;;;183.80;49.63;;;1.50;99.90;;;;;;4748054;30;20077;-76
2022/11/25 06:46:30;;;;;;;152.52;46.78;;;1.50;99.90;;;;;;4769039;29;20421;-76
2022/11/25 06:48:59;;;;;;;167.82;43.95;;;1.50;99.90;;;;;;4756061;30;20052;-76
2022/11/25 06:51:26;;;;;;;145.98;40.28;;;2.10;99.90;;;;;;4766533;30;20144;-76
2022/11/25 06:53:53;;;;;;;136.82;39.33;;;1.60;99.90;;;;;;4762181;30;20051;-76
2022/11/25 06:56:23;;;;;;;126.00;37.45;;;1.60;99.90;;;;;;4760148;30;20059;-76
2022/11/25 06:58:51;;;;;;;135.07;37.80;;;1.60;99.90;;;;;;4758388;30;20043;-76
2022/11/25 07:01:24;;;;;;;121.82;37.65;;;1.70;99.90;;;;;;4760559;30;20083;-77
2022/11/25 07:03:53;;;;;;;111.78;31.23;;;1.70;99.90;;;;;;4769372;30;20151;-77
2022/11/25 07:06:21;;;;;;;124.38;33.75;;;1.80;99.90;;;;;;4768993;30;20467;-77
2022/11/25 07:08:48;;;;;;;116.57;32.55;;;1.80;99.90;;;;;;4778012;30;20067;-78
2022/11/25 07:11:22;;;;;;;123.80;36.47;;;1.90;99.90;;;;;;4787919;29;20040;-78
2022/11/25 07:13:55;;;;;;;133.52;33.67;;;2.10;99.90;;;;;;4775597;30;20055;-79
2022/11/25 07:16:26;;;;;;;124.65;32.15;;;1.90;99.90;;;;;;4793553;30;20051;-78
2022/11/25 07:18:53;;;;;;;123.60;33.33;;;1.90;99.90;;;;;;4766492;30;20028;-78
2022/11/25 07:21:24;;;;;;;119.85;31.58;;;2.10;99.90;;;;;;4782336;30;20060;-78
2022/11/25 07:23:52;;;;;;;114.72;28.75;;;2.10;99.90;;;;;;4821932;24;20038;-77
2022/11/25 07:26:25;;;;;;;122.07;33.03;;;3.50;99.90;;;;;;4764237;30;20419;-77
2022/11/25 07:28:53;;;;;;;;;;;2.10;99.90;;;;;;4782481;29;20085;-77
2022/11/25 07:31:26;;;;;;;110.07;28.23;;;2.20;99.90;;;;;;4777585;29;19948;-79
2022/11/25 07:34:01;;;;;;;120.65;31.63;;;2.30;99.90;;;;;;4759657;30;20156;-80
2022/11/25 07:36:29;;;;;;;125.53;28.75;;;2.10;99.90;;;;;;4796771;29;20147;-80
2022/11/25 07:38:59;;;;;;;117.65;28.77;;;2.10;99.90;;;;;;4784533;29;20048;-80
2022/11/25 07:41:28;;;;;;;107.78;28.33;;;2.10;99.90;;;;;;4779417;29;21031;-80
2022/11/25 07:43:58;;;;;;;123.90;30.23;;;2.80;99.90;;;;;;4769499;30;20059;-80
2022/11/25 07:46:33;;;;;;;122.93;31.02;;;2.40;99.90;;;;;;4776349;29;20841;-80
2022/11/25 07:49:04;;;;;;;128.23;32.00;;;2.50;99.90;;;;;;4779304;29;20493;-80
2022/11/25 07:51:38;;;;;;;114.47;28.92;;;2.50;99.90;;;;;;4761724;30;20058;-80
2022/11/25 07:54:08;;;;;;;114.70;31.20;;;2.60;99.90;;;;;;4782451;29;20181;-80
2022/11/25 07:56:41;;;;;;;115.05;30.13;;;2.70;99.90;;;;;;4769332;29;20058;-80
2022/11/25 07:59:13;;;;;;;125.85;28.83;;;2.90;99.90;;;;;;4757939;30;20139;-80
2022/11/25 08:01:41;;;;;;;117.75;30.15;;;2.80;99.90;;;;;;4763581;30;20516;-80
2022/11/25 08:04:11;;;;;;;126.22;30.77;;;2.90;99.90;;;;;;4776308;29;20056;-80
2022/11/25 08:06:47;;;;;;;134.57;30.92;;;2.90;99.90;;;;;;4781350;29;20051;-80
2022/11/25 08:09:18;;;;;;;119.25;27.45;;;3.00;99.90;;;;;;4777852;29;20063;-80
2022/11/25 08:11:47;;;;;;;137.90;32.33;;;3.30;99.90;;;;;;4775257;30;20492;-80
2022/11/25 08:14:15;;;;;;;121.10;29.85;;;3.10;99.90;;;;;;4782573;29;20066;-80
2022/11/25 08:16:43;;;;;;;122.60;29.83;;;3.10;99.90;;;;;;4769768;30;20500;-80
2022/11/25 08:19:14;;;;;;;125.30;32.78;;;3.80;99.90;;;;;;4781403;29;20074;-80
2022/11/25 08:21:41;;;;;;;143.23;35.35;;;3.40;99.90;;;;;;4756397;30;20064;-80
2022/11/25 08:24:16;;;;;;;138.65;35.90;;;3.20;99.90;;;;;;4754705;30;20075;-80
2022/11/25 08:26:44;;;;;;;185.25;46.25;;;3.20;99.90;;;;;;4768462;30;20040;-80
2022/11/25 08:29:14;;;;;;;162.68;43.95;;;3.40;99.90;;;;;;4768590;30;20504;-80
2022/11/25 08:31:42;;;;;;;154.65;39.42;;;3.50;99.90;;;;;;4768339;30;20071;-80
2022/11/25 08:34:16;;;;;;;136.52;36.83;;;3.60;99.90;;;;;;4766708;30;20116;-80
2022/11/25 08:36:44;;;;;;;144.00;36.13;;;3.70;99.90;;;;;;4767174;30;20821;-80
2022/11/25 08:39:16;;;;;;;125.57;31.17;;;3.80;99.90;;;;;;4751276;30;20048;-80
2022/11/25 08:42:05;;;;;;;121.85;31.77;;;3.80;99.90;;;;;;4756594;30;20135;-80
2022/11/25 08:44:32;;;;;;;107.30;30.08;;;2.50;99.90;;;;;;4767147;30;20059;-80
2022/11/25 08:47:00;;;;;;;109.45;30.25;;;3.90;99.90;;;;;;4753669;30;20079;-80
2022/11/25 08:49:29;;;;;;;107.53;28.77;;;4.00;99.90;;;;;;4764854;30;20048;-79
2022/11/25 08:52:06;;;;;;;99.13;27.27;;;3.00;99.90;;;;;;4755971;30;20059;-78
2022/11/25 08:54:33;;;;;;;88.03;26.25;;;4.00;99.90;;;;;;4769446;30;20051;-78
2022/11/25 08:57:01;;;;;;;88.28;26.45;;;4.20;99.90;;;;;;4755687;30;20079;-78
2022/11/25 08:59:28;;;;;;;80.50;22.45;;;4.30;99.90;;;;;;4772754;30;20108;-78
2022/11/25 09:01:56;;;;;;;79.97;25.45;;;4.20;99.90;;;;;;4771064;30;20139;-78
2022/11/25 09:04:24;;;;;;;69.93;23.17;;;4.30;99.90;;;;;;4787730;29;20052;-78
2022/11/25 09:06:51;;;;;;;70.43;21.85;;;4.50;99.90;;;;;;4760404;30;20087;-78
2022/11/25 09:09:19;;;;;;;58.20;19.77;;;4.50;99.90;;;;;;4768844;30;20163;-78
2022/11/25 09:11:46;;;;;;;54.60;21.40;;;4.50;99.90;;;;;;4759442;30;20052;-78
2022/11/25 09:14:13;;;;;;;50.10;18.25;;;4.70;99.90;;;;;;4775343;30;20101;-78
2022/11/25 09:16:41;;;;;;;54.78;18.38;;;4.70;99.90;;;;;;4758444;30;20054;-78
2022/11/25 09:19:08;;;;;;;51.42;17.98;;;5.00;99.90;;;;;;4774057;30;21917;-78
2022/11/25 09:21:36;;;;;;;52.92;20.63;;;4.90;99.90;;;;;;4767475;30;20040;-78
2022/11/25 09:24:03;;;;;;;55.20;19.20;;;5.10;99.90;;;;;;4769118;30;20076;-78
2022/11/25 09:26:42;;;;;;;50.95;18.85;;;5.00;99.90;;;;;;4762305;30;20051;-78
2022/11/25 09:29:35;;;;;;;51.58;18.27;;;5.10;99.90;;;;;;4780241;30;20124;-78
2022/11/25 09:32:03;;;;;;;55.65;19.48;;;5.10;99.90;;;;;;4777755;30;20101;-78
2022/11/25 09:34:31;;;;;;;50.67;19.90;;;5.10;99.90;;;;;;4780872;30;20040;-78
2022/11/25 09:36:58;;;;;;;56.05;20.13;;;5.40;99.90;;;;;;4773392;30;20067;-78
2022/11/25 09:39:28;;;;;;;46.22;18.48;;;5.30;99.90;;;;;;4763177;30;20066;-78
2022/11/25 09:48:57;;;;;;;45.25;16.30;;;5.70;99.90;;;;;;4792853;29;20086;-78
2022/11/25 09:51:45;;;;;;;47.83;18.98;;;5.70;99.90;;;;;;4674723;30;20136;-78
2022/11/25 09:54:22;;;;;;;49.60;18.40;;;5.80;99.90;;;;;;4688212;30;20046;-78
2022/11/25 09:57:02;;;;;;;46.90;18.95;;;6.00;99.90;;;;;;4735034;30;20079;-78
2022/11/25 09:59:40;;;;;;;47.05;17.95;;;6.00;99.90;;;;;;4766426;30;20048;-78
2022/11/25 10:02:20;;;;;;;47.08;18.13;;;6.10;99.90;;;;;;4765789;30;20504;-78
2022/11/25 10:05:00;;;;;;;44.55;16.73;;;6.10;99.90;;;;;;4759477;30;20059;-78
2022/11/25 10:07:38;;;;;;;50.00;19.15;;;6.20;99.90;;;;;;4770848;30;20071;-78
2022/11/25 10:10:27;;;;;;;49.55;18.58;;;5.30;99.90;;;;;;4773837;29;20128;-78
2022/11/25 10:12:56;;;;;;;42.78;17.30;;;6.40;99.90;;;;;;4747642;30;20052;-78
2022/11/25 10:15:33;;;;;;;42.05;16.80;;;7.00;99.90;;;;;;4767506;30;20047;-78
2022/11/25 10:18:05;;;;;;;41.17;15.20;;;6.50;99.90;;;;;;4771870;30;20087;-78
2022/11/25 10:20:36;;;;;;;36.43;14.77;;;6.50;99.90;;;;;;4763947;30;20060;-78
2022/11/25 10:23:11;;;;;;;36.42;14.65;;;6.60;99.90;;;;;;4779935;29;20080;-78
2022/11/25 10:25:44;;;;;;;37.50;13.50;;;6.60;99.90;;;;;;4758196;30;20539;-78
2022/11/25 10:28:21;;;;;;;33.08;13.88;;;6.60;99.90;;;;;;4771196;30;20070;-78
2022/11/25 10:31:27;;;;;;;38.42;13.18;;;6.70;99.90;;;;;;4764385;30;20052;-78
2022/11/25 10:33:58;;;;;;;37.60;15.10;;;6.70;99.90;;;;;;4778012;30;20056;-78
2022/11/25 10:36:32;;;;;;;40.17;16.27;;;6.80;99.90;;;;;;4774593;30;20047;-78
2022/11/25 10:39:03;;;;;;;36.63;15.27;;;6.80;99.90;;;;;;4777945;30;20053;-78
2022/11/25 10:41:41;;;;;;;40.92;15.85;;;6.90;99.90;;;;;;4762232;30;20113;-78
2022/11/25 10:44:27;;;;;;;41.63;15.85;;;7.00;99.90;;;;;;4781766;30;20082;-78
2022/11/25 10:47:00;;;;;;;38.17;12.95;;;7.10;99.90;;;;;;4777513;30;20056;-78
2022/11/25 10:49:49;;;;;;;37.55;14.98;;;7.20;99.90;;;;;;4764212;30;20087;-78
2022/11/25 10:52:22;;;;;;;37.97;14.90;;;7.20;99.90;;;;;;4777344;30;20063;-78
2022/11/25 10:55:12;;;;;;;41.03;15.95;;;7.30;99.90;;;;;;4784659;30;20123;-78
2022/11/25 11:04:21;;;;;;;37.10;14.38;;;7.30;99.90;;;;;;5485897;24;20074;-77
2022/11/25 11:22:25;;;;;;;29.45;10.63;;;7.70;99.90;;;;;;5709939;24;20073;-78
2022/11/25 15:16:24;;;;;;;111.60;35.92;;;6.50;99.90;;;;;;4710824;30;20534;-79
2022/11/25 15:18:57;;;;;;;284.92;89.10;;;6.30;99.90;;;;;;4683823;30;20542;-79
2022/11/25 15:21:30;;;;;;;220.27;75.90;;;6.30;99.90;;;;;;4692755;30;20054;-79
2022/11/25 15:23:58;;;;;;;215.20;83.65;;;6.50;99.90;;;;;;4680710;30;20057;-79
2022/11/25 15:26:30;;;;;;;123.25;50.80;;;5.90;99.90;;;;;;4683563;30;20084;-79
2022/11/25 15:29:01;;;;;;;106.97;48.20;;;6.20;99.90;;;;;;4680149;30;20057;-79
2022/11/25 15:31:33;;;;;;;73.65;35.35;;;6.10;99.90;;;;;;4673464;30;20471;-79
2022/11/25 15:34:04;;;;;;;67.15;31.38;;;6.20;99.90;;;;;;4677784;30;20109;-79
2022/11/25 15:36:35;;;;;;;64.65;27.50;;;6.20;99.90;;;;;;4678451;30;20058;-79
2022/11/25 15:39:23;;;;;;;60.28;28.10;;;6.00;99.90;;;;;;4699842;30;20058;-79
2022/11/25 15:42:13;;;;;;;72.43;35.47;;;6.00;99.90;;;;;;4662839;30;20053;-79
2022/11/25 15:44:46;;;;;;;57.67;25.60;;;5.90;99.90;;;;;;4681010;30;20059;-79
2022/11/25 15:47:20;;;;;;;69.07;29.95;;;5.50;99.90;;;;;;4668806;30;20431;-79
2022/11/25 15:50:23;;;;;;;69.22;29.90;;;5.70;99.90;;;;;;4696598;30;20057;-79
2022/11/25 15:52:54;;;;;;;73.03;28.67;;;6.30;99.90;;;;;;4698826;30;20137;-79
2022/11/25 15:55:35;;;;;;;55.88;21.77;;;5.60;99.90;;;;;;4683875;30;20054;-79
2022/11/25 15:58:12;;;;;;;57.58;22.23;;;5.50;99.90;;;;;;4694188;30;20058;-79
2022/11/25 16:00:42;;;;;;;55.22;22.25;;;5.50;99.90;;;;;;4678588;30;20531;-79
2022/11/25 16:03:23;;;;;;;54.40;22.17;;;5.40;99.90;;;;;;4671364;30;20050;-79
2022/11/25 16:05:53;;;;;;;52.40;21.17;;;5.50;99.90;;;;;;4681993;30;20105;-79
2022/11/25 16:11:14;;;;;;;64.32;24.92;;;5.50;99.90;;;;;;5153764;24;20031;-79
2022/11/25 16:13:42;;;;;;;59.25;24.83;;;5.40;99.90;;;;;;4748851;30;20119;-79
2022/11/25 16:16:20;;;;;;;50.05;19.83;;;5.40;99.90;;;;;;4764770;30;20048;-79
2022/11/25 16:19:00;;;;;;;183.95;53.13;;;5.40;99.90;;;;;;4750214;30;20044;-79
2022/11/25 16:21:29;;;;;;;517.70;142.73;;;5.10;99.90;;;;;;4759193;30;20086;-79
2022/11/25 16:24:25;;;;;;;471.55;117.18;;;5.30;99.90;;;;;;4751949;30;20068;-79
2022/11/25 16:26:59;;;;;;;173.45;52.58;;;5.30;99.90;;;;;;4784181;29;20067;-79
2022/11/25 16:29:37;;;;;;;115.43;48.58;;;5.20;99.90;;;;;;4776482;29;20056;-79
2022/11/25 16:32:26;;;;;;;75.28;31.88;;;5.20;99.90;;;;;;4764061;30;20051;-79
2022/11/25 16:34:56;;;;;;;68.80;30.23;;;5.20;99.90;;;;;;4763554;30;20047;-79
2022/11/25 16:37:23;;;;;;;142.27;62.65;;;5.20;99.90;;;;;;4754136;30;20070;-79
2022/11/25 16:39:51;;;;;;;180.20;79.57;;;5.00;99.90;;;;;;4765929;30;20048;-79
2022/11/25 16:42:21;;;;;;;113.68;46.45;;;5.10;99.90;;;;;;4768826;30;20051;-79
2022/11/25 16:44:51;;;;;;;175.10;73.63;;;5.00;99.90;;;;;;4752765;30;20091;-79
2022/11/25 16:47:20;;;;;;;105.75;46.25;;;4.90;99.90;;;;;;4754582;30;20050;-79
2022/11/25 16:49:48;;;;;;;71.43;29.85;;;4.90;99.90;;;;;;4766980;29;20064;-79
2022/11/25 16:52:16;;;;;;;69.40;25.83;;;4.90;99.90;;;;;;4753504;30;20883;-79
2022/11/25 16:54:44;;;;;;;62.97;25.17;;;4.90;99.90;;;;;;4769090;29;20071;-79
2022/11/25 16:57:20;;;;;;;66.00;27.52;;;5.40;99.90;;;;;;4777593;29;20052;-79
2022/11/25 16:59:49;;;;;;;71.60;29.17;;;4.80;99.90;;;;;;4762147;30;20055;-79
2022/11/25 17:02:24;;;;;;;70.47;25.13;;;4.90;99.90;;;;;;4744390;30;21963;-79
2022/11/25 17:04:52;;;;;;;57.17;24.42;;;5.60;99.90;;;;;;4748815;30;20052;-76
2022/11/25 17:07:19;;;;;;;64.88;28.90;;;4.80;99.90;;;;;;4763702;30;20515;-77
2022/11/25 17:10:04;;;;;;;70.25;29.77;;;4.80;99.90;;;;;;4754283;30;20055;-76
2022/11/25 17:12:33;;;;;;;64.68;22.60;;;4.80;99.90;;;;;;4780769;29;20052;-76
2022/11/25 17:15:04;;;;;;;57.38;22.27;;;4.80;99.90;;;;;;4775276;29;20497;-76
2022/11/25 17:17:31;;;;;;;58.97;22.52;;;4.70;99.90;;;;;;4781449;29;20462;-77
2022/11/25 17:19:59;;;;;;;53.30;21.77;;;5.50;99.90;;;;;;4749328;30;20058;-76
2022/11/25 17:22:28;;;;;;;51.97;21.95;;;3.70;99.90;;;;;;4756060;30;20052;-76
2022/11/25 17:25:02;;;;;;;56.90;24.17;;;4.60;99.90;;;;;;4767877;30;20059;-77
2022/11/25 17:27:31;;;;;;;56.42;23.15;;;4.60;99.90;;;;;;4768932;30;20071;-76
2022/11/25 17:30:02;;;;;;;56.65;23.90;;;4.60;99.90;;;;;;4754327;30;20044;-76